sensor_id;sensor_type;location;lat;lon;timestamp;pressure;altitude;pressure_sealevel;temperature;humidity
10668;BME280;5382;42.136;24.796;2022-10-03T00:05:01;99787.88;;;18.60;57.31
10668;BME280;5382;42.136;24.796;2022-10-03T00:07:40;99776.13;;;18.52;57.66
10668;BME280;5382;42.136;24.796;2022-10-03T00:10:21;99780.81;;;18.50;57.24
10668;BME280;5382;42.136;24.796;2022-10-03T00:13:04;99772.13;;;18.48;57.37
10668;BME280;5382;42.136;24.796;2022-10-03T00:15:40;99736.84;;;18.11;56.97
10668;BME280;5382;42.136;24.796;2022-10-03T00:18:20;99769.91;;;18.44;57.14
10668;BME280;5382;42.136;24.796;2022-10-03T00:21:02;99768.56;;;18.48;56.96
10668;BME280;5382;42.136;24.796;2022-10-03T00:23:38;99777.78;;;18.45;56.81
10668;BME280;5382;42.136;24.796;2022-10-03T00:26:10;99767.59;;;18.49;56.68
10668;BME280;5382;42.136;24.796;2022-10-03T00:29:02;99760.88;;;18.53;56.52
10668;BME280;5382;42.136;24.796;2022-10-03T00:31:43;99764.72;;;18.50;57.47
10668;BME280;5382;42.136;24.796;2022-10-03T00:34:20;99681.59;;;18.01;57.55
10668;BME280;5382;42.136;24.796;2022-10-03T00:37:07;99743.94;;;18.28;57.44
10668;BME280;5382;42.136;24.796;2022-10-03T00:39:48;99755.50;;;18.37;57.95
10668;BME280;5382;42.136;24.796;2022-10-03T00:42:51;99700.34;;;18.01;58.60
10668;BME280;5382;42.136;24.796;2022-10-03T00:45:52;99768.06;;;18.36;58.90
10668;BME280;5382;42.136;24.796;2022-10-03T00:48:48;99762.84;;;18.35;58.99
10668;BME280;5382;42.136;24.796;2022-10-03T00:51:38;99690.28;;;17.87;58.98
10668;BME280;5382;42.136;24.796;2022-10-03T00:54:22;99760.31;;;18.25;58.76
10668;BME280;5382;42.136;24.796;2022-10-03T00:57:07;99742.91;;;18.21;58.77
10668;BME280;5382;42.136;24.796;2022-10-03T00:59:49;99723.09;;;17.97;59.31
10668;BME280;5382;42.136;24.796;2022-10-03T01:02:34;99747.94;;;18.24;59.72
10668;BME280;5382;42.136;24.796;2022-10-03T01:05:15;99749.28;;;18.28;59.72
10668;BME280;5382;42.136;24.796;2022-10-03T01:08:00;99737.22;;;18.24;59.85
10668;BME280;5382;42.136;24.796;2022-10-03T01:10:33;99641.69;;;17.74;59.59
10668;BME280;5382;42.136;24.796;2022-10-03T01:13:12;99711.25;;;18.16;59.44
10668;BME280;5382;42.136;24.796;2022-10-03T01:15:51;99604.97;;;17.50;59.50
10668;BME280;5382;42.136;24.796;2022-10-03T01:18:31;99719.78;;;18.20;60.11
10668;BME280;5382;42.136;24.796;2022-10-03T01:21:08;99678.53;;;17.88;60.30
10668;BME280;5382;42.136;24.796;2022-10-03T01:23:52;99696.66;;;18.02;60.69
10668;BME280;5382;42.136;24.796;2022-10-03T01:26:48;99717.06;;;18.03;61.38
10668;BME280;5382;42.136;24.796;2022-10-03T01:29:22;99714.72;;;18.00;61.14
10668;BME280;5382;42.136;24.796;2022-10-03T01:32:12;99712.38;;;17.97;61.53
10668;BME280;5382;42.136;24.796;2022-10-03T01:34:45;99728.25;;;17.99;61.85
10668;BME280;5382;42.136;24.796;2022-10-03T01:37:20;99709.84;;;17.87;62.28
10668;BME280;5382;42.136;24.796;2022-10-03T01:39:54;99582.75;;;17.07;62.75
10668;BME280;5382;42.136;24.796;2022-10-03T01:42:34;99721.03;;;17.83;63.25
10668;BME280;5382;42.136;24.796;2022-10-03T01:45:13;99705.22;;;17.72;63.34
10668;BME280;5382;42.136;24.796;2022-10-03T01:47:45;99713.41;;;17.70;64.33
10668;BME280;5382;42.136;24.796;2022-10-03T01:50:22;99713.22;;;17.63;64.61
10668;BME280;5382;42.136;24.796;2022-10-03T01:52:55;99619.56;;;16.87;65.24
10668;BME280;5382;42.136;24.796;2022-10-03T01:55:30;99699.13;;;17.53;65.39
10668;BME280;5382;42.136;24.796;2022-10-03T01:58:04;99712.34;;;17.55;65.66
10668;BME280;5382;42.136;24.796;2022-10-03T02:00:41;99680.59;;;17.26;65.91
10668;BME280;5382;42.136;24.796;2022-10-03T02:03:16;99709.66;;;17.20;67.68
10668;BME280;5382;42.136;24.796;2022-10-03T02:05:52;99715.69;;;17.22;67.82
10668;BME280;5382;42.136;24.796;2022-10-03T02:08:27;99647.44;;;16.84;67.71
10668;BME280;5382;42.136;24.796;2022-10-03T02:11:00;99673.69;;;16.89;67.52
10668;BME280;5382;42.136;24.796;2022-10-03T02:13:39;99673.63;;;16.81;68.06
10668;BME280;5382;42.136;24.796;2022-10-03T02:16:14;99692.34;;;17.07;68.18
10668;BME280;5382;42.136;24.796;2022-10-03T02:18:48;99656.47;;;16.83;68.65
10668;BME280;5382;42.136;24.796;2022-10-03T02:21:18;99682.31;;;16.83;69.25
10668;BME280;5382;42.136;24.796;2022-10-03T02:23:47;99717.72;;;17.03;69.62
10668;BME280;5382;42.136;24.796;2022-10-03T02:32:43;99723.84;;;16.95;71.13
10668;BME280;5382;42.136;24.796;2022-10-03T02:35:43;99722.16;;;16.94;71.37
10668;BME280;5382;42.136;24.796;2022-10-03T02:38:33;99685.47;;;16.78;70.36
10668;BME280;5382;42.136;24.796;2022-10-03T02:41:18;99705.59;;;16.90;70.50
10668;BME280;5382;42.136;24.796;2022-10-03T02:44:15;99702.81;;;17.00;71.40
10668;BME280;5382;42.136;24.796;2022-10-03T02:47:10;99617.28;;;16.30;70.69
10668;BME280;5382;42.136;24.796;2022-10-03T02:56:36;99705.44;;;16.92;72.61
10668;BME280;5382;42.136;24.796;2022-10-03T03:03:00;99679.63;;;16.83;72.17
10668;BME280;5382;42.136;24.796;2022-10-03T03:06:00;99684.69;;;16.86;73.05
10668;BME280;5382;42.136;24.796;2022-10-03T03:09:08;99688.94;;;16.96;73.12
10668;BME280;5382;42.136;24.796;2022-10-03T03:12:12;99676.97;;;16.83;72.86
10668;BME280;5382;42.136;24.796;2022-10-03T03:15:19;99704.22;;;16.68;74.22
10668;BME280;5382;42.136;24.796;2022-10-03T03:18:05;99684.09;;;16.56;73.95
10668;BME280;5382;42.136;24.796;2022-10-03T03:20:49;99685.75;;;16.57;74.28
10668;BME280;5382;42.136;24.796;2022-10-03T03:23:36;99678.31;;;16.43;74.60
10668;BME280;5382;42.136;24.796;2022-10-03T03:26:27;99671.94;;;16.44;74.29
10668;BME280;5382;42.136;24.796;2022-10-03T03:29:09;99628.34;;;16.17;74.03
10668;BME280;5382;42.136;24.796;2022-10-03T03:31:49;99628.34;;;16.17;73.19
10668;BME280;5382;42.136;24.796;2022-10-03T03:34:24;99620.25;;;16.09;73.53
10668;BME280;5382;42.136;24.796;2022-10-03T03:37:01;99601.78;;;16.16;73.56
10668;BME280;5382;42.136;24.796;2022-10-03T03:39:50;99584.13;;;15.97;73.52
10668;BME280;5382;42.136;24.796;2022-10-03T03:42:38;99637.25;;;16.26;73.86
10668;BME280;5382;42.136;24.796;2022-10-03T03:45:30;99647.31;;;16.50;75.02
10668;BME280;5382;42.136;24.796;2022-10-03T03:48:22;99641.88;;;16.42;75.19
10668;BME280;5382;42.136;24.796;2022-10-03T03:51:09;99615.13;;;16.16;74.76
10668;BME280;5382;42.136;24.796;2022-10-03T03:53:52;99620.19;;;16.01;75.79
10668;BME280;5382;42.136;24.796;2022-10-03T03:56:51;99621.72;;;16.03;76.50
10668;BME280;5382;42.136;24.796;2022-10-03T03:59:34;99601.94;;;15.78;76.81
10668;BME280;5382;42.136;24.796;2022-10-03T04:02:13;99647.00;;;15.99;77.38
10668;BME280;5382;42.136;24.796;2022-10-03T04:04:54;99642.50;;;16.00;77.27
10668;BME280;5382;42.136;24.796;2022-10-03T04:07:35;99632.09;;;16.06;77.18
10668;BME280;5382;42.136;24.796;2022-10-03T04:10:21;99618.09;;;15.95;76.98
10668;BME280;5382;42.136;24.796;2022-10-03T04:13:08;99625.72;;;15.89;77.00
10668;BME280;5382;42.136;24.796;2022-10-03T04:18:47;99623.38;;;15.86;77.60
10668;BME280;5382;42.136;24.796;2022-10-03T04:21:42;99569.56;;;15.45;78.82
10668;BME280;5382;42.136;24.796;2022-10-03T04:24:27;99629.25;;;15.72;79.19
10668;BME280;5382;42.136;24.796;2022-10-03T04:27:12;99569.06;;;15.60;77.17
10668;BME280;5382;42.136;24.796;2022-10-03T04:29:46;99620.03;;;16.02;76.62
10668;BME280;5382;42.136;24.796;2022-10-03T04:32:42;99612.25;;;16.09;76.53
10668;BME280;5382;42.136;24.796;2022-10-03T04:35:31;99595.78;;;15.96;76.35
10668;BME280;5382;42.136;24.796;2022-10-03T04:38:07;99605.31;;;15.98;76.56
10668;BME280;5382;42.136;24.796;2022-10-03T04:40:44;99605.47;;;15.97;76.71
10668;BME280;5382;42.136;24.796;2022-10-03T04:43:22;99550.53;;;15.58;76.52
10668;BME280;5382;42.136;24.796;2022-10-03T04:46:00;99619.88;;;16.04;77.18
10668;BME280;5382;42.136;24.796;2022-10-03T04:48:36;99641.81;;;15.98;76.88
10668;BME280;5382;42.136;24.796;2022-10-03T04:51:14;99639.50;;;15.85;78.18
10668;BME280;5382;42.136;24.796;2022-10-03T04:53:50;99593.13;;;15.68;77.13
10668;BME280;5382;42.136;24.796;2022-10-03T04:56:33;99611.47;;;15.81;77.24
10668;BME280;5382;42.136;24.796;2022-10-03T04:59:18;99636.88;;;16.03;76.46
10668;BME280;5382;42.136;24.796;2022-10-03T05:01:52;99621.78;;;15.94;76.92
10668;BME280;5382;42.136;24.796;2022-10-03T05:04:27;99614.09;;;15.90;77.09
10668;BME280;5382;42.136;24.796;2022-10-03T05:07:05;99636.78;;;15.95;76.93
10668;BME280;5382;42.136;24.796;2022-10-03T05:09:43;99632.16;;;15.97;76.65
10668;BME280;5382;42.136;24.796;2022-10-03T05:12:15;99585.28;;;15.66;76.70
10668;BME280;5382;42.136;24.796;2022-10-03T05:15:03;99632.81;;;15.81;77.91
10668;BME280;5382;42.136;24.796;2022-10-03T05:17:42;99633.66;;;15.81;80.20
10668;BME280;5382;42.136;24.796;2022-10-03T05:20:21;99637.03;;;16.01;80.86
10668;BME280;5382;42.136;24.796;2022-10-03T05:22:57;99628.34;;;15.99;77.17
10668;BME280;5382;42.136;24.796;2022-10-03T05:25:36;99628.34;;;16.17;75.63
10668;BME280;5382;42.136;24.796;2022-10-03T05:28:16;99633.44;;;16.28;75.56
10668;BME280;5382;42.136;24.796;2022-10-03T05:30:51;99633.06;;;16.23;74.65
10668;BME280;5382;42.136;24.796;2022-10-03T05:33:26;99632.97;;;16.33;75.87
10668;BME280;5382;42.136;24.796;2022-10-03T05:36:10;99612.69;;;16.22;74.40
10668;BME280;5382;42.136;24.796;2022-10-03T05:39:13;99638.00;;;16.36;74.94
10668;BME280;5382;42.136;24.796;2022-10-03T05:41:51;99646.63;;;16.48;77.60
10668;BME280;5382;42.136;24.796;2022-10-03T05:44:26;99639.81;;;16.53;75.79
10668;BME280;5382;42.136;24.796;2022-10-03T05:46:59;99641.63;;;16.71;73.67
10668;BME280;5382;42.136;24.796;2022-10-03T05:49:48;99629.50;;;16.58;72.92
10668;BME280;5382;42.136;24.796;2022-10-03T05:52:30;99646.91;;;16.63;74.21
10668;BME280;5382;42.136;24.796;2022-10-03T05:55:14;99636.59;;;16.68;74.15
10668;BME280;5382;42.136;24.796;2022-10-03T05:58:10;99634.38;;;16.81;73.74
10668;BME280;5382;42.136;24.796;2022-10-03T06:01:04;99643.00;;;17.01;74.55
10668;BME280;5382;42.136;24.796;2022-10-03T06:06:50;99592.44;;;17.08;71.95
10668;BME280;5382;42.136;24.796;2022-10-03T06:09:39;99619.44;;;17.31;70.48
10668;BME280;5382;42.136;24.796;2022-10-03T06:12:19;99633.28;;;17.26;70.78
10668;BME280;5382;42.136;24.796;2022-10-03T06:18:13;99637.84;;;17.34;69.96
10668;BME280;5382;42.136;24.796;2022-10-03T06:21:40;99580.81;;;16.91;69.84
10668;BME280;5382;42.136;24.796;2022-10-03T06:27:53;99620.22;;;17.57;70.05
10668;BME280;5382;42.136;24.796;2022-10-03T06:33:51;99612.03;;;17.59;67.78
10668;BME280;5382;42.136;24.796;2022-10-03T06:43:01;99635.56;;;17.90;67.68
10668;BME280;5382;42.136;24.796;2022-10-03T06:49:05;99631.06;;;17.98;67.34
10668;BME280;5382;42.136;24.796;2022-10-03T06:51:51;99623.88;;;18.07;67.55
10668;BME280;5382;42.136;24.796;2022-10-03T06:57:44;99571.47;;;17.80;68.50
10668;BME280;5382;42.136;24.796;2022-10-03T07:00:20;99607.16;;;18.21;68.14
10668;BME280;5382;42.136;24.796;2022-10-03T07:03:26;99608.13;;;18.12;67.84
10668;BME280;5382;42.136;24.796;2022-10-03T07:06:30;99616.03;;;18.38;68.03
10668;BME280;5382;42.136;24.796;2022-10-03T07:09:29;99617.88;;;18.54;65.36
10668;BME280;5382;42.136;24.796;2022-10-03T07:15:51;99605.28;;;18.71;68.10
10668;BME280;5382;42.136;24.796;2022-10-03T07:21:48;99602.91;;;19.01;63.13
10668;BME280;5382;42.136;24.796;2022-10-03T07:24:40;99558.41;;;18.75;63.46
10668;BME280;5382;42.136;24.796;2022-10-03T07:27:37;99606.41;;;19.01;64.91
10668;BME280;5382;42.136;24.796;2022-10-03T07:30:12;99599.84;;;19.12;64.27
10668;BME280;5382;42.136;24.796;2022-10-03T07:33:06;99567.66;;;19.12;65.01
10668;BME280;5382;42.136;24.796;2022-10-03T07:36:02;99586.78;;;19.48;62.72
10668;BME280;5382;42.136;24.796;2022-10-03T07:39:09;99592.78;;;19.58;61.79
10668;BME280;5382;42.136;24.796;2022-10-03T07:42:11;99590.22;;;19.73;59.86
10668;BME280;5382;42.136;24.796;2022-10-03T07:45:25;99578.53;;;19.89;59.21
10668;BME280;5382;42.136;24.796;2022-10-03T07:51:17;99593.09;;;20.18;59.33
10668;BME280;5382;42.136;24.796;2022-10-03T07:57:26;99592.88;;;20.65;57.74
10668;BME280;5382;42.136;24.796;2022-10-03T08:00:17;99600.50;;;20.77;55.79
10668;BME280;5382;42.136;24.796;2022-10-03T08:03:29;99592.72;;;20.82;57.10
10668;BME280;5382;42.136;24.796;2022-10-03T08:06:16;99598.84;;;20.76;56.37
10668;BME280;5382;42.136;24.796;2022-10-03T08:09:06;99575.81;;;20.58;57.46
10668;BME280;5382;42.136;24.796;2022-10-03T08:14:43;99560.03;;;20.70;56.66
10668;BME280;5382;42.136;24.796;2022-10-03T08:20:31;99612.75;;;20.94;56.13
10668;BME280;5382;42.136;24.796;2022-10-03T08:23:23;99583.72;;;20.89;55.66
10668;BME280;5382;42.136;24.796;2022-10-03T08:26:04;99535.94;;;20.62;55.82
10668;BME280;5382;42.136;24.796;2022-10-03T08:28:52;99569.44;;;20.89;55.64
10668;BME280;5382;42.136;24.796;2022-10-03T08:31:39;99578.44;;;20.96;56.25
10668;BME280;5382;42.136;24.796;2022-10-03T08:34:40;99596.97;;;21.21;55.56
10668;BME280;5382;42.136;24.796;2022-10-03T08:44:14;99591.69;;;21.12;53.92
10668;BME280;5382;42.136;24.796;2022-10-03T08:50:12;99602.72;;;21.32;54.81
10668;BME280;5382;42.136;24.796;2022-10-03T08:55:51;99603.75;;;20.87;56.93
10668;BME280;5382;42.136;24.796;2022-10-03T08:58:43;99541.25;;;20.47;57.11
10668;BME280;5382;42.136;24.796;2022-10-03T09:01:41;99577.88;;;20.48;57.74
10668;BME280;5382;42.136;24.796;2022-10-03T09:07:43;99602.69;;;20.58;59.93
10668;BME280;5382;42.136;24.796;2022-10-03T09:10:33;99604.19;;;20.61;60.86
10668;BME280;5382;42.136;24.796;2022-10-03T09:13:37;99596.78;;;20.63;59.89
10668;BME280;5382;42.136;24.796;2022-10-03T09:19:46;99622.28;;;21.11;61.54
10668;BME280;5382;42.136;24.796;2022-10-03T09:22:57;99645.16;;;21.45;58.23
10668;BME280;5382;42.136;24.796;2022-10-03T09:25:37;99579.78;;;21.37;56.64
10668;BME280;5382;42.136;24.796;2022-10-03T09:28:30;99628.94;;;21.75;57.23
10668;BME280;5382;42.136;24.796;2022-10-03T09:31:16;99606.25;;;21.33;59.20
10668;BME280;5382;42.136;24.796;2022-10-03T09:34:31;99637.69;;;21.77;57.39
10668;BME280;5382;42.136;24.796;2022-10-03T09:37:32;99618.75;;;21.55;57.77
10668;BME280;5382;42.136;24.796;2022-10-03T09:43:45;99629.19;;;21.59;62.01
10668;BME280;5382;42.136;24.796;2022-10-03T09:49:45;99631.09;;;21.80;61.76
10668;BME280;5382;42.136;24.796;2022-10-03T09:52:32;99639.28;;;21.71;61.55
10668;BME280;5382;42.136;24.796;2022-10-03T09:55:29;99620.94;;;21.45;62.24
10668;BME280;5382;42.136;24.796;2022-10-03T09:58:27;99662.69;;;21.56;65.00
10668;BME280;5382;42.136;24.796;2022-10-03T10:01:12;99620.75;;;21.17;68.70
10668;BME280;5382;42.136;24.796;2022-10-03T10:04:10;99629.72;;;20.95;70.27
10668;BME280;5382;42.136;24.796;2022-10-03T10:07:13;99642.28;;;21.17;71.70
10668;BME280;5382;42.136;24.796;2022-10-03T10:10:13;99552.75;;;20.41;72.75
10668;BME280;5382;42.136;24.796;2022-10-03T10:13:10;99661.53;;;20.91;74.99
10668;BME280;5382;42.136;24.796;2022-10-03T10:19:17;99662.72;;;20.74;77.03
10668;BME280;5382;42.136;24.796;2022-10-03T10:22:21;99682.97;;;20.61;77.88
10668;BME280;5382;42.136;24.796;2022-10-03T10:28:30;99647.47;;;19.97;79.57
10668;BME280;5382;42.136;24.796;2022-10-03T10:37:32;99705.97;;;19.78;83.61
10668;BME280;5382;42.136;24.796;2022-10-03T10:40:36;99651.41;;;19.30;84.17
10668;BME280;5382;42.136;24.796;2022-10-03T10:43:34;99717.06;;;19.59;85.04
10668;BME280;5382;42.136;24.796;2022-10-03T10:46:35;99689.59;;;19.49;85.95
10668;BME280;5382;42.136;24.796;2022-10-03T10:49:39;99649.81;;;19.13;87.30
10668;BME280;5382;42.136;24.796;2022-10-03T10:52:35;99719.00;;;19.34;88.57
10668;BME280;5382;42.136;24.796;2022-10-03T11:01:50;99729.56;;;19.27;91.24
10668;BME280;5382;42.136;24.796;2022-10-03T11:04:58;99741.84;;;19.05;99.96
10668;BME280;5382;42.136;24.796;2022-10-03T11:08:13;99692.38;;;18.50;100.00
10668;BME280;5382;42.136;24.796;2022-10-03T11:11:00;99674.94;;;18.22;100.00
10668;BME280;5382;42.136;24.796;2022-10-03T11:14:04;99732.41;;;18.60;100.00
10668;BME280;5382;42.136;24.796;2022-10-03T11:27:14;99624.41;;;18.76;100.00
10668;BME280;5382;42.136;24.796;2022-10-03T11:30:34;99647.00;;;18.82;100.00
10668;BME280;5382;42.136;24.796;2022-10-03T11:33:48;99684.31;;;19.24;100.00
10668;BME280;5382;42.136;24.796;2022-10-03T11:36:48;99653.16;;;19.07;100.00
10668;BME280;5382;42.136;24.796;2022-10-03T11:39:24;99671.28;;;18.96;100.00
10668;BME280;5382;42.136;24.796;2022-10-03T11:41:59;99713.53;;;19.03;100.00
10668;BME280;5382;42.136;24.796;2022-10-03T11:44:30;99691.72;;;19.06;100.00
10668;BME280;5382;42.136;24.796;2022-10-03T11:47:25;99686.00;;;19.17;100.00
10668;BME280;5382;42.136;24.796;2022-10-03T11:50:37;99672.44;;;19.18;100.00
10668;BME280;5382;42.136;24.796;2022-10-03T11:53:33;99677.19;;;19.48;100.00
10668;BME280;5382;42.136;24.796;2022-10-03T11:56:19;99684.69;;;19.69;100.00
10668;BME280;5382;42.136;24.796;2022-10-03T11:59:04;99631.94;;;20.30;100.00
10668;BME280;5382;42.136;24.796;2022-10-03T12:01:44;99651.56;;;21.95;95.22
10668;BME280;5382;42.136;24.796;2022-10-03T12:04:24;99638.56;;;23.13;85.63
10668;BME280;5382;42.136;24.796;2022-10-03T12:06:58;99670.25;;;24.42;78.18
10668;BME280;5382;42.136;24.796;2022-10-03T12:10:02;99660.06;;;24.84;72.99
10668;BME280;5382;42.136;24.796;2022-10-03T12:12:38;99664.44;;;25.25;68.89
10668;BME280;5382;42.136;24.796;2022-10-03T12:15:22;99671.00;;;25.56;64.84
10668;BME280;5382;42.136;24.796;2022-10-03T12:17:59;99647.66;;;26.06;63.70
10668;BME280;5382;42.136;24.796;2022-10-03T12:20:33;99666.75;;;26.82;57.93
10668;BME280;5382;42.136;24.796;2022-10-03T12:23:17;99663.41;;;27.05;55.37
10668;BME280;5382;42.136;24.796;2022-10-03T12:25:52;99642.44;;;27.12;54.87
10668;BME280;5382;42.136;24.796;2022-10-03T12:28:23;99666.22;;;27.16;55.22
10668;BME280;5382;42.136;24.796;2022-10-03T12:30:53;99629.22;;;26.47;57.63
10668;BME280;5382;42.136;24.796;2022-10-03T12:33:32;99614.81;;;25.89;60.36
10668;BME280;5382;42.136;24.796;2022-10-03T12:36:08;99620.44;;;25.88;59.29
10668;BME280;5382;42.136;24.796;2022-10-03T12:38:46;99517.28;;;24.73;56.76
10668;BME280;5382;42.136;24.796;2022-10-03T12:41:27;99637.53;;;25.88;59.78
10668;BME280;5382;42.136;24.796;2022-10-03T12:44:11;99633.09;;;25.42;59.30
10668;BME280;5382;42.136;24.796;2022-10-03T12:46:45;99654.66;;;24.77;58.54
10668;BME280;5382;42.136;24.796;2022-10-03T12:49:18;99648.31;;;24.10;57.06
10668;BME280;5382;42.136;24.796;2022-10-03T12:51:53;99660.59;;;24.06;56.00
10668;BME280;5382;42.136;24.796;2022-10-03T12:54:44;99624.78;;;23.91;56.79
10668;BME280;5382;42.136;24.796;2022-10-03T12:57:43;99502.84;;;23.46;55.54
10668;BME280;5382;42.136;24.796;2022-10-03T13:00:17;99644.66;;;24.85;55.67
10668;BME280;5382;42.136;24.796;2022-10-03T13:03:01;99659.94;;;25.57;51.45
10668;BME280;5382;42.136;24.796;2022-10-03T13:05:39;99601.44;;;25.95;50.29
10668;BME280;5382;42.136;24.796;2022-10-03T13:08:33;99587.97;;;25.75;49.83
10668;BME280;5382;42.136;24.796;2022-10-03T13:11:14;99640.19;;;26.65;46.79
10668;BME280;5382;42.136;24.796;2022-10-03T13:13:58;99632.44;;;27.49;45.44
10668;BME280;5382;42.136;24.796;2022-10-03T13:16:31;99609.75;;;27.92;43.36
10668;BME280;5382;42.136;24.796;2022-10-03T13:19:04;99632.13;;;28.36;41.10
10668;BME280;5382;42.136;24.796;2022-10-03T13:21:51;99631.47;;;28.53;40.14
10668;BME280;5382;42.136;24.796;2022-10-03T13:24:35;99623.97;;;27.94;39.47
10668;BME280;5382;42.136;24.796;2022-10-03T13:27:16;99617.25;;;28.09;40.54
10668;BME280;5382;42.136;24.796;2022-10-03T13:29:50;99623.41;;;28.16;38.85
10668;BME280;5382;42.136;24.796;2022-10-03T13:32:29;99611.97;;;28.25;39.09
10668;BME280;5382;42.136;24.796;2022-10-03T13:35:13;99636.63;;;28.42;38.18
10668;BME280;5382;42.136;24.796;2022-10-03T13:40:59;99612.66;;;28.75;37.08
10668;BME280;5382;42.136;24.796;2022-10-03T13:43:31;99623.97;;;27.76;39.70
10668;BME280;5382;42.136;24.796;2022-10-03T13:46:05;99608.41;;;26.91;41.37
10668;BME280;5382;42.136;24.796;2022-10-03T13:48:38;99615.78;;;26.59;43.72
10668;BME280;5382;42.136;24.796;2022-10-03T13:51:18;99587.91;;;25.81;44.06
10668;BME280;5382;42.136;24.796;2022-10-03T13:53:57;99616.72;;;25.24;46.94
10668;BME280;5382;42.136;24.796;2022-10-03T13:56:44;99645.16;;;24.00;49.38
10668;BME280;5382;42.136;24.796;2022-10-03T13:59:33;99631.41;;;23.82;51.65
10668;BME280;5382;42.136;24.796;2022-10-03T14:02:17;99629.00;;;23.17;53.33
10668;BME280;5382;42.136;24.796;2022-10-03T14:05:25;99616.34;;;23.18;54.08
10668;BME280;5382;42.136;24.796;2022-10-03T14:08:03;99552.19;;;23.13;53.02
10668;BME280;5382;42.136;24.796;2022-10-03T14:10:54;99619.78;;;23.88;50.98
10668;BME280;5382;42.136;24.796;2022-10-03T14:13:32;99617.78;;;24.16;49.58
10668;BME280;5382;42.136;24.796;2022-10-03T14:16:15;99599.50;;;24.72;48.45
10668;BME280;5382;42.136;24.796;2022-10-03T14:18:55;99581.66;;;25.87;44.53
10668;BME280;5382;42.136;24.796;2022-10-03T14:21:34;99605.41;;;25.40;43.72
10668;BME280;5382;42.136;24.796;2022-10-03T14:24:11;99579.25;;;26.04;42.94
10668;BME280;5382;42.136;24.796;2022-10-03T14:26:44;99615.50;;;26.42;40.76
10668;BME280;5382;42.136;24.796;2022-10-03T14:29:20;99609.09;;;27.05;40.05
10668;BME280;5382;42.136;24.796;2022-10-03T14:32:11;99614.44;;;27.36;38.52
10668;BME280;5382;42.136;24.796;2022-10-03T14:34:49;99551.50;;;27.21;38.03
10668;BME280;5382;42.136;24.796;2022-10-03T14:37:24;99610.97;;;26.86;39.41
10668;BME280;5382;42.136;24.796;2022-10-03T14:40:02;99586.72;;;26.66;40.16
10668;BME280;5382;42.136;24.796;2022-10-03T14:42:46;99597.81;;;26.64;40.24
10668;BME280;5382;42.136;24.796;2022-10-03T14:45:22;99611.72;;;26.93;38.76
10668;BME280;5382;42.136;24.796;2022-10-03T14:47:53;99616.00;;;27.26;38.18
10668;BME280;5382;42.136;24.796;2022-10-03T14:50:25;99610.06;;;27.10;37.82
10668;BME280;5382;42.136;24.796;2022-10-03T14:52:57;99602.63;;;26.30;38.17
10668;BME280;5382;42.136;24.796;2022-10-03T14:55:30;99588.88;;;25.55;39.04
10668;BME280;5382;42.136;24.796;2022-10-03T14:58:00;99605.63;;;25.32;40.01
10668;BME280;5382;42.136;24.796;2022-10-03T15:00:37;99614.41;;;25.14;40.29
10668;BME280;5382;42.136;24.796;2022-10-03T15:03:28;99632.16;;;24.90;41.26
10668;BME280;5382;42.136;24.796;2022-10-03T15:06:03;99636.72;;;24.30;42.60
10668;BME280;5382;42.136;24.796;2022-10-03T15:08:45;99610.97;;;23.66;44.71
10668;BME280;5382;42.136;24.796;2022-10-03T15:11:15;99616.66;;;23.78;45.41
10668;BME280;5382;42.136;24.796;2022-10-03T15:13:45;99647.63;;;23.75;45.88
10668;BME280;5382;42.136;24.796;2022-10-03T15:16:16;99645.91;;;23.33;48.00
10668;BME280;5382;42.136;24.796;2022-10-03T15:18:51;99645.19;;;22.89;48.64
10668;BME280;5382;42.136;24.796;2022-10-03T15:21:20;99622.84;;;22.03;49.39
10668;BME280;5382;42.136;24.796;2022-10-03T15:23:53;99642.09;;;21.99;51.00
10668;BME280;5382;42.136;24.796;2022-10-03T15:26:22;99616.81;;;21.64;51.64
10668;BME280;5382;42.136;24.796;2022-10-03T15:28:54;99654.75;;;21.84;52.15
10668;BME280;5382;42.136;24.796;2022-10-03T15:31:32;99642.47;;;21.45;52.79
10668;BME280;5382;42.136;24.796;2022-10-03T15:34:01;99604.13;;;21.13;53.71
10668;BME280;5382;42.136;24.796;2022-10-03T15:36:34;99666.00;;;21.28;54.86
10668;BME280;5382;42.136;24.796;2022-10-03T15:39:05;99528.16;;;20.14;56.09
10668;BME280;5382;42.136;24.796;2022-10-03T15:41:41;99514.19;;;20.19;56.65
10668;BME280;5382;42.136;24.796;2022-10-03T15:44:18;99640.38;;;20.88;57.73
10668;BME280;5382;42.136;24.796;2022-10-03T15:46:49;99647.78;;;20.71;59.25
10668;BME280;5382;42.136;24.796;2022-10-03T15:49:23;99643.66;;;20.60;59.93
10668;BME280;5382;42.136;24.796;2022-10-03T15:51:54;99595.38;;;20.06;61.53
10668;BME280;5382;42.136;24.796;2022-10-03T15:54:25;99664.13;;;20.38;62.72
10668;BME280;5382;42.136;24.796;2022-10-03T15:56:56;99655.16;;;20.23;62.53
10668;BME280;5382;42.136;24.796;2022-10-03T15:59:27;99651.66;;;20.22;63.08
10668;BME280;5382;42.136;24.796;2022-10-03T16:01:55;99621.94;;;20.01;63.18
10668;BME280;5382;42.136;24.796;2022-10-03T16:04:24;99661.75;;;20.20;62.58
10668;BME280;5382;42.136;24.796;2022-10-03T16:07:00;99647.88;;;19.86;63.73
10668;BME280;5382;42.136;24.796;2022-10-03T16:09:32;99680.44;;;20.14;64.25
10668;BME280;5382;42.136;24.796;2022-10-03T16:12:24;99684.41;;;20.18;63.01
10668;BME280;5382;42.136;24.796;2022-10-03T16:15:04;99688.66;;;20.12;62.36
10668;BME280;5382;42.136;24.796;2022-10-03T16:17:43;99653.44;;;19.76;62.74
10668;BME280;5382;42.136;24.796;2022-10-03T16:20:18;99697.13;;;20.01;62.30
10668;BME280;5382;42.136;24.796;2022-10-03T16:22:51;99704.03;;;19.95;63.01
10668;BME280;5382;42.136;24.796;2022-10-03T16:25:21;99704.78;;;19.81;64.80
10668;BME280;5382;42.136;24.796;2022-10-03T16:27:53;99718.59;;;19.70;65.48
10668;BME280;5382;42.136;24.796;2022-10-03T16:30:22;99699.81;;;19.53;66.77
10668;BME280;5382;42.136;24.796;2022-10-03T16:33:02;99700.00;;;19.52;66.77
10668;BME280;5382;42.136;24.796;2022-10-03T16:35:33;99714.59;;;19.49;67.59